createdAt,value
2019-03-01T00:00:15.671Z,100306.31
2019-03-01T00:03:10.239Z,100311.42
2019-03-01T00:06:20.271Z,100308.88
2019-03-01T00:09:31.805Z,100307.53
2019-03-01T00:12:58.498Z,100311.13
2019-03-01T00:16:15.633Z,100306.38
2019-03-01T00:20:06.487Z,100277.47
2019-03-01T00:23:25.546Z,100300.66
2019-03-01T00:26:36.016Z,100296.66
2019-03-01T00:30:02.289Z,100288.30
2019-03-01T00:33:13.084Z,100280.41
2019-03-01T00:36:56.180Z,100280.52
2019-03-01T00:40:16.085Z,100286.68
2019-03-01T00:43:37.761Z,100295.77
2019-03-01T00:46:28.162Z,100300.73
2019-03-01T00:49:18.353Z,100294.08
2019-03-01T00:52:09.336Z,100291.59
2019-03-01T00:54:59.511Z,100291.48
2019-03-01T00:57:50.032Z,100284.83
2019-03-01T01:00:43.465Z,100280.00
2019-03-01T01:03:33.444Z,100275.50
2019-03-01T01:06:23.711Z,100266.72
2019-03-01T01:09:13.964Z,100264.67
2019-03-01T01:12:04.404Z,100257.97
2019-03-01T01:14:54.685Z,100262.08
2019-03-01T01:17:44.938Z,100258.11
2019-03-01T01:20:35.205Z,100249.91
2019-03-01T01:23:25.456Z,100241.98
2019-03-01T01:26:15.450Z,100229.63
2019-03-01T01:29:05.703Z,100225.45
2019-03-01T01:31:55.669Z,100218.91
2019-03-01T01:34:47.234Z,100232.66
2019-03-01T01:37:37.552Z,100229.09
2019-03-01T01:40:28.032Z,100233.67
2019-03-01T01:43:19.898Z,100229.89
2019-03-01T01:46:10.270Z,100227.80
2019-03-01T01:49:00.461Z,100219.81
2019-03-01T01:51:50.924Z,100221.72
2019-03-01T01:54:40.853Z,100231.41
2019-03-01T01:57:33.461Z,100223.81
2019-03-01T02:00:23.486Z,100218.84
2019-03-01T02:03:16.335Z,100220.64
2019-03-01T02:06:06.570Z,100221.97
2019-03-01T02:08:56.909Z,100213.91
2019-03-01T02:11:48.299Z,100214.95
2019-03-01T02:14:38.520Z,100212.00
2019-03-01T02:17:28.717Z,100178.25
2019-03-01T02:20:19.096Z,100200.41
2019-03-01T02:23:09.466Z,100194.86
2019-03-01T02:25:59.771Z,100193.42
2019-03-01T02:28:49.923Z,100191.15
2019-03-01T02:31:42.674Z,100200.77
2019-03-01T02:34:32.671Z,100202.38
2019-03-01T02:37:22.841Z,100204.77
2019-03-01T02:40:13.582Z,100200.45
2019-03-01T02:43:05.086Z,100205.61
2019-03-01T02:45:55.935Z,100205.57
2019-03-01T02:48:46.061Z,100205.57
2019-03-01T02:51:36.348Z,100209.28
2019-03-01T02:54:26.483Z,100204.38
2019-03-01T02:57:16.911Z,100203.77
2019-03-01T03:00:09.662Z,100205.97
2019-03-01T03:03:00.928Z,100202.73
2019-03-01T03:06:02.753Z,100205.90
2019-03-01T03:08:52.822Z,100208.38
2019-03-01T03:11:43.181Z,100207.84
2019-03-01T03:14:34.403Z,100209.17
2019-03-01T03:17:24.646Z,100209.42
2019-03-01T03:20:14.828Z,100204.96
2019-03-01T03:23:05.944Z,100187.69
2019-03-01T03:25:56.366Z,100212.16
2019-03-01T03:28:46.729Z,100208.48
2019-03-01T03:31:37.003Z,100210.89
2019-03-01T03:34:27.188Z,100208.66
2019-03-01T03:37:17.248Z,100210.79
2019-03-01T03:40:09.594Z,100206.58
2019-03-01T03:43:00.143Z,100205.35
2019-03-01T03:45:50.147Z,100209.60
2019-03-01T03:48:40.518Z,100211.86
2019-03-01T03:51:30.693Z,100211.86
2019-03-01T03:54:20.993Z,100211.58
2019-03-01T03:57:11.619Z,100210.00
2019-03-01T04:00:01.669Z,100201.76
2019-03-01T04:02:51.799Z,100205.22
2019-03-01T04:05:44.632Z,100201.33
2019-03-01T04:08:34.650Z,100198.30
2019-03-01T04:11:27.347Z,100200.39
2019-03-01T04:14:17.519Z,100206.11
2019-03-01T04:17:07.874Z,100203.45
2019-03-01T04:19:57.931Z,100200.42
2019-03-01T04:22:47.831Z,100203.67
2019-03-01T04:25:38.120Z,100213.16
2019-03-01T04:28:28.422Z,100214.89
2019-03-01T04:31:19.048Z,100214.53
2019-03-01T04:34:09.232Z,100216.44
2019-03-01T04:36:59.579Z,100213.87
2019-03-01T04:39:49.732Z,100222.12
2019-03-01T04:42:39.892Z,100216.55
2019-03-01T04:45:30.101Z,100216.44
2019-03-01T04:48:20.693Z,100219.67
2019-03-01T04:51:13.523Z,100221.22
2019-03-01T04:54:03.630Z,100229.78
2019-03-01T04:56:53.541Z,100225.42
2019-03-01T04:59:44.319Z,100223.87
2019-03-01T05:02:34.524Z,100229.48
2019-03-01T05:05:24.676Z,100229.96
2019-03-01T05:08:15.126Z,100227.73
2019-03-01T05:11:05.792Z,100235.44
2019-03-01T05:13:56.018Z,100243.86
2019-03-01T05:16:46.318Z,100243.97
2019-03-01T05:19:36.576Z,100248.03
2019-03-01T05:22:27.471Z,100250.56
2019-03-01T05:25:19.742Z,100247.57
2019-03-01T05:28:09.820Z,100252.36
2019-03-01T05:31:00.212Z,100251.81
2019-03-01T05:33:50.546Z,100254.48
2019-03-01T05:36:42.025Z,100266.77
2019-03-01T05:39:32.310Z,100262.05
2019-03-01T05:42:22.716Z,100266.77
2019-03-01T05:45:16.650Z,100276.44
2019-03-01T05:48:06.675Z,100281.37
2019-03-01T05:50:56.907Z,100280.88
2019-03-01T05:53:47.106Z,100279.03
2019-03-01T05:56:37.349Z,100285.70
2019-03-01T05:59:30.650Z,100275.38
2019-03-01T06:02:46.572Z,100284.05
2019-03-01T06:05:39.368Z,100281.27
2019-03-01T06:09:06.144Z,100286.55
2019-03-01T06:12:38.012Z,100284.37
2019-03-01T06:16:07.545Z,100287.84
2019-03-01T06:19:16.928Z,100285.92
2019-03-01T06:22:35.846Z,100295.81
2019-03-01T06:26:06.794Z,100293.88
2019-03-01T06:29:25.052Z,100290.23
2019-03-01T06:32:58.584Z,100289.53
2019-03-01T06:36:02.083Z,100295.88
2019-03-01T06:39:39.373Z,100293.05
2019-03-01T06:43:04.060Z,100284.87
2019-03-01T06:46:25.696Z,100288.48
2019-03-01T06:49:31.655Z,100293.50
2019-03-01T06:52:23.035Z,100288.91
2019-03-01T06:55:34.928Z,100290.28
2019-03-01T06:58:31.908Z,100294.13
2019-03-01T07:01:34.769Z,100284.55
2019-03-01T07:04:25.707Z,100291.89
2019-03-01T07:07:16.786Z,100283.98
2019-03-01T07:10:08.565Z,100285.33
2019-03-01T07:12:59.573Z,100279.56
2019-03-01T07:15:52.866Z,100287.93
2019-03-01T07:18:44.034Z,100287.93
2019-03-01T07:21:35.545Z,100280.87
2019-03-01T07:24:26.634Z,100280.87
2019-03-01T07:27:17.593Z,100281.67
2019-03-01T07:30:08.661Z,100278.73
2019-03-01T07:32:59.213Z,100271.61
2019-03-01T07:35:50.916Z,100281.20
2019-03-01T07:38:41.639Z,100281.78
2019-03-01T07:41:32.405Z,100281.09
2019-03-01T07:44:23.237Z,100278.12
2019-03-01T07:47:14.146Z,100276.64
2019-03-01T07:50:05.636Z,100276.64
2019-03-01T07:52:56.341Z,100273.67
2019-03-01T07:55:49.822Z,100262.70
2019-03-01T07:58:40.855Z,100264.54
2019-03-01T08:01:31.741Z,100256.80
2019-03-01T08:04:23.774Z,100256.36
2019-03-01T08:07:15.089Z,100253.14
2019-03-01T08:10:07.978Z,100239.28
2019-03-01T08:12:58.765Z,100243.56
2019-03-01T08:15:49.847Z,100239.34
2019-03-01T08:18:44.119Z,100245.33
2019-03-01T08:21:33.475Z,100253.41
2019-03-01T08:24:24.424Z,100248.59
2019-03-01T08:27:15.339Z,100237.48
2019-03-01T08:30:10.270Z,100246.35
2019-03-01T08:33:02.626Z,100251.38
2019-03-01T08:35:54.124Z,100252.25
2019-03-01T08:38:45.150Z,100245.40
2019-03-01T08:41:35.742Z,100246.75
2019-03-01T08:44:27.463Z,100246.36
2019-03-01T08:47:23.471Z,100243.61
2019-03-01T08:50:11.544Z,100240.98
2019-03-01T08:53:01.706Z,100239.11
2019-03-01T08:55:53.138Z,100237.34
2019-03-01T08:58:43.494Z,100233.95
2019-03-01T09:01:35.149Z,100225.44
2019-03-01T09:04:25.524Z,100225.22
2019-03-01T09:07:15.906Z,100216.25
2019-03-01T09:10:06.604Z,100220.56
2019-03-01T09:12:59.740Z,100217.99
2019-03-01T09:15:50.462Z,100217.72
2019-03-01T09:18:40.950Z,100207.38
2019-03-01T09:21:31.327Z,100210.17
2019-03-01T09:24:22.261Z,100209.22
2019-03-01T09:27:13.172Z,100211.23
2019-03-01T09:30:04.205Z,100201.30
2019-03-01T09:32:55.213Z,100188.20
2019-03-01T09:35:53.660Z,100190.84
2019-03-01T09:38:44.594Z,100183.84
2019-03-01T09:41:36.598Z,100192.52
2019-03-01T09:44:27.462Z,100196.91
2019-03-01T09:47:17.862Z,100182.25
2019-03-01T09:50:08.900Z,100176.45
2019-03-01T09:53:00.059Z,100183.65
2019-03-01T09:55:50.318Z,100180.20
2019-03-01T09:58:40.862Z,100177.42
2019-03-01T10:01:30.933Z,100164.14
2019-03-01T10:04:22.436Z,100163.95
2019-03-01T10:07:13.044Z,100152.63
2019-03-01T10:10:03.578Z,100160.78
2019-03-01T10:12:53.834Z,100158.60
2019-03-01T10:15:44.211Z,100156.90
2019-03-01T10:18:34.333Z,100150.53
2019-03-01T10:21:24.774Z,100147.13
2019-03-01T10:24:14.924Z,100141.08
2019-03-01T10:27:05.192Z,100144.80
2019-03-01T10:29:55.475Z,100145.11
2019-03-01T10:32:46.406Z,100144.78
2019-03-01T10:35:36.854Z,100130.56
2019-03-01T10:38:27.436Z,100144.45
2019-03-01T10:41:17.672Z,100150.53
2019-03-01T10:44:08.007Z,100150.53
2019-03-01T10:46:59.537Z,100151.89
2019-03-01T10:49:50.043Z,100146.78
2019-03-01T10:52:41.778Z,100143.38
2019-03-01T10:55:32.527Z,100141.50
2019-03-01T10:58:22.881Z,100139.65
2019-03-01T11:01:13.275Z,100133.59
2019-03-01T11:04:03.642Z,100130.77
2019-03-01T11:06:54.308Z,100120.47
2019-03-01T11:09:44.488Z,100129.81
2019-03-01T11:12:38.071Z,100126.78
2019-03-01T11:15:28.086Z,100118.16
2019-03-01T11:18:18.812Z,100118.03
2019-03-01T11:21:11.748Z,100104.84
2019-03-01T11:24:02.287Z,100114.52
2019-03-01T11:26:52.756Z,100088.98
2019-03-01T11:29:43.223Z,100088.98
2019-03-01T11:32:33.254Z,100089.31
2019-03-01T11:35:23.558Z,100083.39
2019-03-01T11:38:13.898Z,100088.30
2019-03-01T11:41:05.079Z,100080.54
2019-03-01T11:43:55.556Z,100074.13
2019-03-01T11:46:45.944Z,100059.02
2019-03-01T11:49:36.473Z,100059.02
2019-03-01T11:52:26.790Z,100064.27
2019-03-01T11:55:17.636Z,100051.28
2019-03-01T11:58:08.151Z,100054.16
2019-03-01T12:00:58.629Z,100053.45
2019-03-01T12:03:48.761Z,100053.45
2019-03-01T12:06:39.489Z,100050.58
2019-03-01T12:09:29.687Z,100042.28
2019-03-01T12:12:19.917Z,100036.55
2019-03-01T12:15:10.542Z,100034.17
2019-03-01T12:18:00.714Z,100031.75
2019-03-01T12:20:51.732Z,100025.98
2019-03-01T12:23:41.848Z,100025.27
2019-03-01T12:26:33.420Z,100024.01
2019-03-01T12:29:24.937Z,100021.84
2019-03-01T12:32:15.797Z,100021.34
2019-03-01T12:35:06.750Z,100015.42
2019-03-01T12:37:57.247Z,100005.23
2019-03-01T12:40:47.722Z,100007.98
2019-03-01T12:43:38.657Z,99999.63
2019-03-01T12:46:28.884Z,99999.63
2019-03-01T12:49:19.186Z,99993.67
2019-03-01T12:52:09.172Z,99993.67
2019-03-01T12:54:59.617Z,99986.05
2019-03-01T12:57:49.946Z,99975.22
2019-03-01T13:00:40.467Z,99970.13
2019-03-01T13:03:31.638Z,99960.23
2019-03-01T13:06:22.256Z,99969.70
2019-03-01T13:09:15.850Z,99968.50
2019-03-01T13:12:06.221Z,99968.02
2019-03-01T13:14:56.657Z,99975.41
2019-03-01T13:17:47.190Z,99972.08
2019-03-01T13:20:38.150Z,99967.27
2019-03-01T13:23:31.105Z,99966.77
2019-03-01T13:26:21.681Z,99967.14
2019-03-01T13:29:11.915Z,99971.57
2019-03-01T13:32:01.924Z,99964.31
2019-03-01T13:34:53.324Z,99957.66
2019-03-01T13:37:43.643Z,99962.24
2019-03-01T13:40:34.224Z,99963.95
2019-03-01T13:43:27.417Z,99950.13
2019-03-01T13:46:16.190Z,99951.04
2019-03-01T13:49:06.573Z,99940.25
2019-03-01T13:51:57.045Z,99936.73
2019-03-01T13:54:47.254Z,99936.73
2019-03-01T13:57:37.465Z,99946.03
2019-03-01T14:00:27.736Z,99941.02
2019-03-01T14:03:20.816Z,99941.02
2019-03-01T14:06:10.345Z,99935.30
2019-03-01T14:09:00.689Z,99931.05
2019-03-01T14:11:55.742Z,99928.84
2019-03-01T14:14:44.374Z,99930.81
2019-03-01T14:17:34.700Z,99923.73
2019-03-01T14:20:24.873Z,99918.74
2019-03-01T14:23:15.150Z,99921.86
2019-03-01T14:26:06.688Z,99916.95
2019-03-01T14:28:57.097Z,99912.70
2019-03-01T14:31:47.624Z,99906.80
2019-03-01T14:34:37.842Z,99916.45
2019-03-01T14:37:28.666Z,99905.94
2019-03-01T14:40:22.214Z,99906.48
2019-03-01T14:43:12.310Z,99898.72
2019-03-01T14:46:02.621Z,99898.72
2019-03-01T14:48:53.410Z,99895.66
2019-03-01T14:51:46.549Z,99883.88
2019-03-01T14:54:35.632Z,99897.19
2019-03-01T14:57:38.761Z,99900.44
2019-03-01T15:00:53.596Z,99898.27
2019-03-01T15:03:43.563Z,99890.33
2019-03-01T15:06:34.128Z,99899.66
2019-03-01T15:09:24.392Z,99885.30
2019-03-01T15:12:19.667Z,99885.30
2019-03-01T15:15:06.938Z,99902.03
2019-03-01T15:17:57.904Z,99892.74
2019-03-01T15:20:48.443Z,99891.06
2019-03-01T15:23:38.908Z,99899.02
2019-03-01T15:26:29.310Z,99897.36
2019-03-01T15:29:19.886Z,99897.34
2019-03-01T15:32:12.437Z,99891.10
2019-03-01T15:35:04.039Z,99896.33
2019-03-01T15:37:54.577Z,99890.27
2019-03-01T15:40:45.183Z,99886.89
2019-03-01T15:43:35.526Z,99900.39
2019-03-01T15:46:25.940Z,99901.37
2019-03-01T15:49:16.314Z,99903.90
2019-03-01T15:52:06.445Z,99900.67
2019-03-01T15:54:57.591Z,99901.37
2019-03-01T15:57:47.730Z,99896.46
2019-03-01T16:00:38.022Z,99892.20
2019-03-01T16:03:28.165Z,99898.44
2019-03-01T16:06:22.253Z,99895.47
2019-03-01T16:09:17.625Z,99895.28
2019-03-01T16:12:07.688Z,99897.79
2019-03-01T16:15:00.572Z,99888.16
2019-03-01T16:17:50.485Z,99900.05
2019-03-01T16:20:40.870Z,99897.45
2019-03-01T16:23:31.155Z,99896.63
2019-03-01T16:26:29.658Z,99905.17
2019-03-01T16:29:14.569Z,99902.61
2019-03-01T16:32:08.149Z,99906.94
2019-03-01T16:34:57.338Z,99904.28
2019-03-01T16:37:49.452Z,99902.02
2019-03-01T16:40:39.923Z,99903.50
2019-03-01T16:43:30.196Z,99904.31
2019-03-01T16:46:21.513Z,99905.33
2019-03-01T16:49:12.012Z,99902.06
2019-03-01T16:52:02.423Z,99904.90
2019-03-01T16:54:54.763Z,99849.90
2019-03-01T16:57:44.881Z,99909.18
2019-03-01T17:00:35.263Z,99909.87
2019-03-01T17:03:25.598Z,99905.42
2019-03-01T17:06:15.942Z,99908.84
2019-03-01T17:09:07.809Z,99913.57
2019-03-01T17:11:58.300Z,99913.36
2019-03-01T17:14:48.675Z,99913.08
2019-03-01T17:17:39.539Z,99919.96
2019-03-01T17:20:31.264Z,99915.20
2019-03-01T17:23:22.170Z,99921.58
2019-03-01T17:26:12.614Z,99924.13
2019-03-01T17:29:04.104Z,99924.03
2019-03-01T17:31:54.812Z,99932.95
2019-03-01T17:34:46.005Z,99931.45
2019-03-01T17:37:36.407Z,99936.92
2019-03-01T17:40:29.388Z,99938.77
2019-03-01T17:43:18.275Z,99935.53
2019-03-01T17:46:08.735Z,99942.55
2019-03-01T17:48:59.081Z,99935.91
2019-03-01T17:51:49.308Z,99932.98
2019-03-01T17:54:39.608Z,99922.75
2019-03-01T17:57:33.120Z,99922.68
2019-03-01T18:00:28.186Z,99927.56
2019-03-01T18:03:18.600Z,99923.13
2019-03-01T18:06:16.816Z,99924.17
2019-03-01T18:09:06.610Z,99915.73
2019-03-01T18:11:58.040Z,99916.30
2019-03-01T18:14:48.309Z,99911.02
2019-03-01T18:17:38.433Z,99912.50
2019-03-01T18:20:28.743Z,99908.87
2019-03-01T18:23:21.903Z,99895.71
2019-03-01T18:26:12.075Z,99892.17
2019-03-01T18:29:04.429Z,99892.56
2019-03-01T18:31:54.756Z,99890.67
2019-03-01T18:34:45.077Z,99891.04
2019-03-01T18:37:35.635Z,99894.92
2019-03-01T18:40:26.111Z,99899.59
2019-03-01T18:43:19.660Z,99902.92
2019-03-01T18:46:11.256Z,99907.02
2019-03-01T18:49:01.707Z,99908.78
2019-03-01T18:51:52.020Z,99906.67
2019-03-01T18:54:43.043Z,99909.51
2019-03-01T18:57:35.410Z,99907.80
2019-03-01T19:00:35.835Z,99917.17
2019-03-01T19:03:25.316Z,99914.41
2019-03-01T19:06:16.240Z,99910.77
2019-03-01T19:09:08.675Z,99909.91
2019-03-01T19:11:59.031Z,99914.61
2019-03-01T19:14:49.214Z,99906.66
2019-03-01T19:17:40.730Z,99909.27
2019-03-01T19:20:32.062Z,99903.72
2019-03-01T19:23:22.101Z,99895.84
2019-03-01T19:26:13.115Z,99904.27
2019-03-01T19:29:03.698Z,99904.44
2019-03-01T19:31:54.001Z,99902.75
2019-03-01T19:34:44.538Z,99897.38
2019-03-01T19:37:35.218Z,99902.37
2019-03-01T19:40:25.360Z,99905.70
2019-03-01T19:43:15.786Z,99917.05
2019-03-01T19:46:07.259Z,99916.98
2019-03-01T19:48:58.664Z,99924.06
2019-03-01T19:51:49.161Z,99918.02
2019-03-01T19:54:39.712Z,99909.87
2019-03-01T19:57:30.107Z,99915.09
2019-03-01T20:00:22.013Z,99910.44
2019-03-01T20:03:13.071Z,99911.27
2019-03-01T20:06:04.542Z,99912.78
2019-03-01T20:08:55.368Z,99912.28
2019-03-01T20:11:45.479Z,99910.02
2019-03-01T20:14:35.771Z,99903.74
2019-03-01T20:17:26.103Z,99907.28
2019-03-01T20:20:17.769Z,99911.67
2019-03-01T20:23:08.035Z,99918.31
2019-03-01T20:25:59.372Z,99898.32
2019-03-01T20:28:50.464Z,99916.91
2019-03-01T20:31:41.737Z,99917.77
2019-03-01T20:34:34.868Z,99914.42
2019-03-01T20:37:24.759Z,99921.63
2019-03-01T20:40:15.801Z,99920.71
2019-03-01T20:43:07.018Z,99899.66
2019-03-01T20:45:57.378Z,99915.72
2019-03-01T20:48:48.781Z,99916.84
2019-03-01T20:51:38.821Z,99921.12
2019-03-01T20:54:29.256Z,99923.27
2019-03-01T20:57:19.360Z,99925.40
2019-03-01T21:00:12.010Z,99917.78
2019-03-01T21:03:02.128Z,99911.22
2019-03-01T21:05:52.721Z,99912.33
2019-03-01T21:08:43.030Z,99905.23
2019-03-01T21:11:33.471Z,99903.60
2019-03-01T21:14:27.000Z,99900.63
2019-03-01T21:17:16.740Z,99891.24
2019-03-01T21:20:08.381Z,99888.51
2019-03-01T21:22:59.088Z,99880.45
2019-03-01T21:25:49.548Z,99879.80
2019-03-01T21:28:41.721Z,99870.21
2019-03-01T21:31:35.147Z,99876.14
2019-03-01T21:34:24.158Z,99869.97
2019-03-01T21:37:16.586Z,99871.45
2019-03-01T21:40:07.304Z,99872.17
2019-03-01T21:43:00.009Z,99875.19
2019-03-01T21:45:49.222Z,99874.56
2019-03-01T21:48:39.464Z,99876.92
2019-03-01T21:51:30.561Z,99868.25
2019-03-01T21:54:20.664Z,99865.86
2019-03-01T21:57:11.008Z,99866.34
2019-03-01T22:00:01.145Z,99866.05
2019-03-01T22:02:54.321Z,99866.77
2019-03-01T22:05:45.388Z,99867.02
2019-03-01T22:08:36.142Z,99862.13
2019-03-01T22:11:26.472Z,99860.47
2019-03-01T22:14:16.872Z,99847.98
2019-03-01T22:17:07.292Z,99851.48
2019-03-01T22:19:57.855Z,99849.94
2019-03-01T22:22:48.182Z,99844.78
2019-03-01T22:25:39.094Z,99842.11
2019-03-01T22:28:32.649Z,99835.34
2019-03-01T22:31:21.111Z,99833.75
2019-03-01T22:34:11.439Z,99832.66
2019-03-01T22:37:01.838Z,99830.36
2019-03-01T22:39:52.338Z,99829.48
2019-03-01T22:42:45.828Z,99827.52
2019-03-01T22:45:35.229Z,99810.59
2019-03-01T22:48:25.843Z,99815.20
2019-03-01T22:51:18.013Z,99812.48
2019-03-01T22:54:08.525Z,99813.91
2019-03-01T22:56:58.880Z,99814.16
2019-03-01T22:59:49.350Z,99824.87
2019-03-01T23:02:43.507Z,99820.01
2019-03-01T23:05:35.508Z,99834.11
2019-03-01T23:08:25.651Z,99840.53
2019-03-01T23:11:18.211Z,99839.43
2019-03-01T23:14:08.340Z,99839.59
2019-03-01T23:16:59.112Z,99835.23
2019-03-01T23:19:51.609Z,99832.45
2019-03-01T23:22:42.786Z,99831.70
2019-03-01T23:25:33.604Z,99827.40
2019-03-01T23:28:23.892Z,99824.63
2019-03-01T23:31:14.289Z,99828.53
2019-03-01T23:34:07.049Z,99835.13
2019-03-01T23:36:57.039Z,99831.13
2019-03-01T23:39:47.432Z,99835.66
2019-03-01T23:42:37.845Z,99836.86
2019-03-01T23:45:28.302Z,99831.44
2019-03-01T23:48:18.585Z,99834.32
2019-03-01T23:51:10.557Z,99831.84
2019-03-01T23:54:01.023Z,99829.73
2019-03-01T23:56:51.674Z,99828.92
2019-03-01T23:59:42.174Z,99837.42
